2022年5月22日

时间 代码 天气 温度 能见度 乌云 METAR/SPECI
08:50
V
25 °C 10 km+ - 120°   120° 3 kt METAR LIPQ 220650Z AUTO 12003KT 080V170 9999 NCD 25/17 Q1013
08:20
V
23 °C 10 km+ - 020°   020° 4 kt METAR LIPQ 220620Z AUTO 02004KT 9999 NCD 23/17 Q1013
07:50
V
21 °C 10 km+ - 350°   350° 3 kt METAR LIPQ 220550Z AUTO 35003KT 9999 NCD 21/16 Q1013
07:20
V
20 °C 10 km+ - Var   Var 2 kt METAR LIPQ 220520Z AUTO VRB02KT 9999 NCD 20/16 Q1013
06:50
V
18 °C 10 km+ - Var   Var 2 kt METAR LIPQ 220450Z AUTO VRB02KT 9999 NCD 18/15 Q1013
06:20
V
16 °C 10 km+ - 030°   030° 4 kt METAR LIPQ 220420Z AUTO 03004KT 9999 NCD 16/15 Q1013
05:50
V
15 °C 10 km+ - Var   Var 2 kt METAR LIPQ 220350Z AUTO VRB02KT 9999 NCD 15/14 Q1013
05:20
V
16 °C 10 km+ - 040°   040° 3 kt METAR LIPQ 220320Z AUTO 04003KT 9999 NCD 16/15 Q1013
04:50
V
15 °C 10 km+ - 020°   020° 3 kt METAR LIPQ 220250Z AUTO 02003KT 9999 NCD 15/14 Q1013
04:20
V
16 °C 10 km+ - Var   Var 1 kt METAR LIPQ 220220Z AUTO VRB01KT 9999 NCD 16/15 Q1013
03:50
V
16 °C 10 km+ - 080°   080° 3 kt METAR LIPQ 220150Z AUTO 08003KT 9999 NCD 16/15 Q1013
03:20
V
17 °C 10 km+ - Var   Var 1 kt METAR LIPQ 220120Z AUTO VRB01KT 9999 NCD 17/15 Q1013
02:50
V
17 °C 10 km+ - 090°   090° 3 kt METAR LIPQ 220050Z AUTO 09003KT 9999 NCD 17/15 Q1014
02:20
V
18 °C 10 km+ - 180°   180° 2 kt METAR LIPQ 220020Z AUTO 18002KT 9999 NCD 18/16 Q1014
01:50
V
18 °C 10 km+ - Var   Var 2 kt METAR LIPQ 212350Z AUTO VRB02KT 9999 NCD 18/15 Q1014
01:20
V
18 °C 10 km+ - 030°   030° 4 kt METAR LIPQ 212320Z AUTO 03004KT 9999 NCD 18/16 Q1014
00:50
V
18 °C 10 km+ - 070°   070° 2 kt METAR LIPQ 212250Z AUTO 07002KT 9999 NCD 18/16 Q1014
00:20
V
18 °C 10 km+ - Var   Var 1 kt METAR LIPQ 212220Z AUTO VRB01KT 9999 NCD 18/16 Q1014

2022年5月21日

时间 代码 天气 温度 能见度 乌云 METAR/SPECI
23:50
V
19 °C 10 km+ - Var   Var 2 kt METAR LIPQ 212150Z AUTO VRB02KT 9999 NCD 19/16 Q1014
23:20
V
19 °C 10 km+ - 040°   040° 3 kt METAR LIPQ 212120Z AUTO 04003KT 9999 FEW240/// 19/16 Q1015
22:50
V
20 °C 10 km+ - 040°   040° 4 kt METAR LIPQ 212050Z AUTO 04004KT 9999 FEW250/// 20/17 Q1015
22:20
V
20 °C 10 km+ 24.000 ft 350°   350° 2 kt METAR LIPQ 212020Z AUTO 35002KT 9999 BKN240/// 20/17 Q1015
21:50
V
20 °C 10 km+ - Var   Var 2 kt METAR LIPQ 211950Z AUTO VRB02KT 9999 SCT240/// 20/16 Q1014
21:20
V
22 °C 10 km+ - 240°   240° 4 kt METAR LIPQ 211920Z AUTO 24004KT 9999 FEW250/// 22/16 Q1014
20:50
V
23 °C 10 km+ - 200°   200° 3 kt METAR LIPQ 211850Z AUTO 20003KT 9999 NCD 23/16 Q1014
20:20
V
23 °C 10 km+ - 160°   160° 4 kt METAR LIPQ 211820Z AUTO 16004KT 9999 NCD 23/16 Q1014
19:50
V
24 °C 10 km+ - 160°   160° 5 kt METAR LIPQ 211750Z AUTO 16005KT 9999 NCD 24/16 Q1014
19:20
V
25 °C 10 km+ - 150°   150° 6 kt METAR LIPQ 211720Z AUTO 15006KT 9999 NCD 25/15 Q1014
18:50
V
25 °C 10 km+ - 160°   160° 7 kt METAR LIPQ 211650Z AUTO 16007KT 9999 NCD 25/14 Q1014
18:20
V
26 °C 10 km+ - 150°   150° 6 kt METAR LIPQ 211620Z AUTO 15006KT 9999 NCD 26/14 Q1014
17:50
V
27 °C 10 km+ - 170°   170° 4 kt METAR LIPQ 211550Z AUTO 17004KT 130V200 9999 NCD 27/14 Q1015
17:20
V
27 °C 10 km+ - 160°   160° 5 kt METAR LIPQ 211520Z AUTO 16005KT 130V200 9999 NCD 27/13 Q1015
16:50
V
27 °C 10 km+ - 200°   200° 5 kt METAR LIPQ 211450Z AUTO 20005KT 160V240 9999 NCD 27/14 Q1015
16:20
V
27 °C 10 km+ - 200°   200° 5 kt METAR LIPQ 211420Z AUTO 20005KT 160V250 9999 NCD 27/14 Q1016
15:50
V
27 °C 10 km+ - 210°   210° 7 kt METAR LIPQ 211350Z AUTO 21007KT 180V250 9999 NCD 27/13 Q1016
15:20
V
27 °C 10 km+ - 230°   230° 7 kt METAR LIPQ 211320Z AUTO 23007KT 200V280 9999 NCD 27/13 Q1016
14:50
V
28 °C 10 km+ - 230°   230° 6 kt METAR LIPQ 211250Z AUTO 23006KT 180V280 9999 NCD 28/14 Q1017
14:20
V
28 °C 10 km+ - 250°   250° 7 kt METAR LIPQ 211220Z AUTO 25007KT 170V280 9999 NCD 28/14 Q1017
13:50
V
28 °C 10 km+ - 260°   260° 4 kt METAR LIPQ 211150Z AUTO 26004KT 200V310 9999 NCD 28/12 Q1017
13:20
V
27 °C 10 km+ - 230°   230° 6 kt METAR LIPQ 211120Z AUTO 23006KT 160V260 9999 NCD 27/11 Q1017
12:50
V
27 °C 10 km+ - Var   Var 3 kt METAR LIPQ 211050Z AUTO VRB03KT 9999 NCD 27/11 Q1018
12:20
V
27 °C 10 km+ - Var   Var 3 kt METAR LIPQ 211020Z AUTO VRB03KT 9999 NCD 27/10 Q1018
11:50
V
26 °C 10 km+ - Var   Var 3 kt METAR LIPQ 210950Z AUTO VRB03KT 9999 NCD 26/09 Q1018
11:20
V
25 °C 10 km+ - 230°   230° 4 kt METAR LIPQ 210920Z AUTO 23004KT 190V330 9999 NCD 25/10 Q1018
10:50
V
25 °C 10 km+ - 180°   180° 5 kt METAR LIPQ 210850Z AUTO 18005KT 140V210 9999 NCD 25/07 Q1018
10:20
V
25 °C 10 km+ - 180°   180° 4 kt METAR LIPQ 210820Z AUTO 18004KT 130V210 9999 NCD 25/08 Q1019
09:50
V
24 °C 10 km+ - 170°   170° 4 kt METAR LIPQ 210750Z AUTO 17004KT 130V210 9999 NCD 24/07 Q1019
09:20
V
23 °C 10 km+ - 190°   190° 3 kt METAR LIPQ 210720Z AUTO 19003KT 160V220 9999 SCT170/// 23/08 Q1019
08:50
V
23 °C 10 km+ - Var   Var 2 kt METAR LIPQ 210650Z AUTO VRB02KT 9999 NCD 23/08 Q1019
08:20
V
21 °C 10 km+ - Var   Var 1 kt METAR LIPQ 210620Z AUTO VRB01KT 9999 NCD 21/07 Q1019
07:50
V
19 °C 10 km+ - 010°   010° 3 kt METAR LIPQ 210550Z AUTO 01003KT 340V050 9999 NCD 19/08 Q1019
07:20
V
17 °C 10 km+ - Var   Var 2 kt METAR LIPQ 210520Z AUTO VRB02KT 9999 NCD 17/08 Q1019
06:50
V
16 °C 10 km+ - Var   Var 2 kt METAR LIPQ 210450Z AUTO VRB02KT 9999 NCD 16/09 Q1019
06:20
V
13 °C 10 km+ - 030°   030° 3 kt METAR LIPQ 210420Z AUTO 03003KT 9999 NCD 13/08 Q1019
05:50
V
13 °C 10 km+ - Var   Var 1 kt METAR LIPQ 210350Z AUTO VRB01KT 9999 NCD 13/08 Q1019
05:20
V
13 °C 10 km+ - 010°   010° 3 kt METAR LIPQ 210320Z AUTO 01003KT 9999 NCD 13/08 Q1019
04:50
V
13 °C 10 km+ - Var   Var 1 kt METAR LIPQ 210250Z AUTO VRB01KT 9999 NCD 13/08 Q1019
04:20
V
13 °C 10 km+ - 020°   020° 3 kt METAR LIPQ 210220Z AUTO 02003KT 9999 NCD 13/07 Q1019
03:50
V
14 °C 10 km+ - 080°   080° 4 kt METAR LIPQ 210150Z AUTO 08004KT 040V110 9999 NCD 14/07 Q1019
03:20
V
14 °C 10 km+ - 100°   100° 4 kt METAR LIPQ 210120Z AUTO 10004KT 050V120 9999 NCD 14/06 Q1020
02:50
V
13 °C 10 km+ - 110°   110° 5 kt METAR LIPQ 210050Z AUTO 11005KT 9999 NCD 13/06 Q1020
02:20
V
14 °C 10 km+ - 110°   110° 5 kt METAR LIPQ 210020Z AUTO 11005KT 9999 NCD 14/05 Q1020
01:50
V
14 °C 10 km+ - 020°   020° 2 kt METAR LIPQ 202350Z AUTO 02002KT 9999 SCT061/// 14/07 Q1021
01:20
V
14 °C 10 km+ - Var   Var 2 kt METAR LIPQ 202320Z AUTO VRB02KT 9999 NCD 14/08 Q1022
00:50
V
14 °C 10 km+ - 020°   020° 3 kt METAR LIPQ 202250Z AUTO 02003KT 9999 NCD 14/09 Q1022
00:20
V
14 °C 10 km+ - 070°   070° 2 kt METAR LIPQ 202220Z AUTO 07002KT 9999 NCD 14/09 Q1022

2022年5月20日

时间 代码 天气 温度 能见度 乌云 METAR/SPECI
23:50
V
15 °C 10 km+ - 110°   110° 2 kt METAR LIPQ 202150Z AUTO 11002KT 9999 NCD 15/09 Q1021
23:20
V
16 °C 10 km+ - 030°   030° 2 kt METAR LIPQ 202120Z AUTO 03002KT 9999 NCD 16/10 Q1022
22:50
V
16 °C 10 km+ - 050°   050° 2 kt METAR LIPQ 202050Z AUTO 05002KT 9999 NCD 16/11 Q1022
22:20
V
17 °C 10 km+ - 060°   060° 2 kt METAR LIPQ 202020Z AUTO 06002KT 9999 NCD 17/11 Q1022
21:50
V
19 °C 10 km+ - 110°   110° 4 kt METAR LIPQ 201950Z AUTO 11004KT 9999 NCD 19/11 Q1022
21:20
V
19 °C 10 km+ - 130°   130° 2 kt METAR LIPQ 201920Z AUTO 13002KT 9999 NCD 19/10 Q1022
20:50
V
20 °C 10 km+ - 190°   190° 2 kt METAR LIPQ 201850Z AUTO 19002KT 9999 NCD 20/10 Q1022
20:20
V
21 °C 10 km+ - 210°   210° 4 kt METAR LIPQ 201820Z AUTO 21004KT 9999 NCD 21/09 Q1022
19:50
V
22 °C 10 km+ - 190°   190° 4 kt METAR LIPQ 201750Z AUTO 19004KT 9999 NCD 22/08 Q1022
19:20
V
23 °C 10 km+ - 200°   200° 6 kt METAR LIPQ 201720Z AUTO 20006KT 9999 NCD 23/08 Q1022
18:50
V
24 °C 10 km+ - 220°   220° 6 kt METAR LIPQ 201650Z AUTO 22006KT 180V240 9999 NCD 24/03 Q1022
18:20
V
24 °C 10 km+ - 220°   220° 5 kt METAR LIPQ 201620Z AUTO 22005KT 180V250 9999 NCD 24/03 Q1022
17:50
V
24 °C 10 km+ - 230°   230° 6 kt METAR LIPQ 201550Z AUTO 23006KT 160V250 9999 NCD 24/06 Q1023
17:20
V
25 °C 10 km+ - 230°   230° 6 kt METAR LIPQ 201520Z AUTO 23006KT 9999 NCD 25/03 Q1023
16:50
V
25 °C 10 km+ - 210°   210° 7 kt METAR LIPQ 201450Z AUTO 21007KT 170V250 9999 NCD 25/04 Q1023
16:20
V
25 °C 10 km+ - 220°   220° 7 kt METAR LIPQ 201420Z AUTO 22007KT 190V270 9999 NCD 25/06 Q1024
15:50
V
25 °C 10 km+ - 220°   220° 8 kt METAR LIPQ 201350Z AUTO 22008KT 190V250 9999 NCD 25/06 Q1024
15:20
V
25 °C 10 km+ - 230°   230° 8 kt METAR LIPQ 201320Z AUTO 23008KT 190V260 9999 NCD 25/06 Q1024
14:50
V
25 °C 10 km+ - 200°   200° 9 kt METAR LIPQ 201250Z AUTO 20009KT 160V220 9999 NCD 25/05 Q1025
14:20
V
25 °C 10 km+ - 200°   200° 8 kt METAR LIPQ 201220Z AUTO 20008KT 9999 NCD 25/05 Q1025
13:50
V
25 °C 10 km+ - 210°   210° 8 kt METAR LIPQ 201150Z AUTO 21008KT 170V240 9999 NCD 25/09 Q1025
13:20
V
25 °C 10 km+ - 210°   210° 7 kt METAR LIPQ 201120Z AUTO 21007KT 130V260 9999 NCD 25/10 Q1025
12:50
V
25 °C 10 km+ - 220°   220° 6 kt METAR LIPQ 201050Z AUTO 22006KT 130V280 9999 NCD 25/12 Q1026
12:20
V
25 °C 10 km+ - Var   Var 5 kt METAR LIPQ 201020Z AUTO VRB05KT 9999 NCD 25/13 Q1026
11:50
V
25 °C 10 km+ - Var   Var 4 kt METAR LIPQ 200950Z AUTO VRB04KT 9999 NCD 25/11 Q1026
11:20
V
24 °C 10 km+ - Var   Var 3 kt METAR LIPQ 200920Z AUTO VRB03KT 9999 NCD 24/11 Q1026
10:50
V
23 °C 10 km+ - 240°   240° 3 kt METAR LIPQ 200850Z AUTO 24003KT 190V320 9999 NCD 23/13 Q1026
10:20
V
23 °C 10 km+ - Var   Var 2 kt METAR LIPQ 200820Z AUTO VRB02KT 9999 NCD 23/13 Q1026
09:50
V
22 °C 10 km+ - Var   Var 2 kt METAR LIPQ 200750Z AUTO VRB02KT 9999 NCD 22/12 Q1027
09:20
V
21 °C 10 km+ - Var   Var 2 kt METAR LIPQ 200720Z AUTO VRB02KT 9999 NCD 21/13 Q1027
08:50
V
21 °C 10 km+ - Var   Var 1 kt METAR LIPQ 200650Z AUTO VRB01KT 9999 NCD 21/13 Q1027
08:20
V
19 °C 10 km+ - Var   Var 1 kt METAR LIPQ 200620Z AUTO VRB01KT 9999 NCD 19/12 Q1027
07:50
V
17 °C 10 km+ - 100°   100° 3 kt METAR LIPQ 200550Z AUTO 10003KT 060V120 9999 NCD 17/11 Q1027
07:20
V
16 °C 10 km+ - Var   Var 2 kt METAR LIPQ 200520Z AUTO VRB02KT 9999 NCD 16/10 Q1026
06:50
V
14 °C 10 km+ - Var   Var 1 kt METAR LIPQ 200450Z AUTO VRB01KT 9999 NCD 14/10 Q1026
较旧的数据

下载我们的应用程序

在您的手机和平板电脑上轻松访问所有航空天气。
有许多网站上没有的功能,如离线支持和个人机场列表。

Studio Eveline

Benalmádena
España

我们和第三方通过cookies跟踪您在我们网站上的上网行为。如果您继续,我们认为您同意我们的cookie政策。 了解更多